Time;durP1;ratioP1;P1;durP2;ratioP2;P2;SDS_P1;SDS_P2;PMS_P1;PMS_P2;Temp;Humidity;BMP_temperature;BMP_pressure;BME280_temperature;BME280_humidity;BME280_pressure;Samples;Min_cycle;Max_cycle;Signal;HPM_P1;HPM_P2
2022/11/29 00:00:59;;;;;;;;;6.00;4.25;;;;;10.15;69.97;100659.31;5071983;28;47251;-77
2022/11/29 00:03:26;;;;;;;;;3.50;2.50;;;;;10.14;69.98;100652.41;5069950;28;46421;-77
2022/11/29 00:05:52;;;;;;;;;5.25;5.25;;;;;10.08;70.24;100653.66;5071110;27;45708;-77
2022/11/29 00:08:19;;;;;;;;;5.00;4.25;;;;;10.07;70.28;100659.81;5071328;28;46785;-77
2022/11/29 00:10:45;;;;;;;;;8.25;5.75;;;;;10.06;70.45;100661.59;5069988;28;46515;-77
2022/11/29 00:13:10;;;;;;;;;4.25;4.00;;;;;10.07;70.26;100659.81;5069135;28;46981;-76
2022/11/29 00:15:37;;;;;;;;;6.25;5.00;;;;;10.05;70.33;100659.06;5069353;27;45561;-74
2022/11/29 00:18:02;;;;;;;;;3.75;3.50;;;;;10.00;70.53;100658.56;5070828;28;45954;-75
2022/11/29 00:20:28;;;;;;;;;4.25;4.25;;;;;10.05;70.68;100666.94;5052666;28;46626;-76
2022/11/29 00:22:53;;;;;;;;;7.00;4.25;;;;;10.03;70.30;100656.59;5069980;28;46312;-77
2022/11/29 00:25:19;;;;;;;;;2.75;2.50;;;;;9.97;70.69;100654.38;5050925;28;46053;-76
2022/11/29 00:27:44;;;;;;;;;5.00;3.00;;;;;9.98;70.76;100656.06;5069540;28;45732;-76
2022/11/29 00:30:10;;;;;;;;;5.50;3.00;;;;;9.96;70.87;100657.94;5063584;28;46201;-77
2022/11/29 00:32:36;;;;;;;;;6.25;4.25;;;;;9.95;70.76;100663.25;5069155;28;47511;-77
2022/11/29 00:35:01;;;;;;;;;4.00;3.50;;;;;10.01;70.73;100668.94;5070187;27;45739;-75
2022/11/29 00:37:26;;;;;;;;;8.25;6.25;;;;;10.04;70.75;100676.56;5052495;28;45703;-75
2022/11/29 00:39:53;;;;;;;;;5.25;3.00;;;;;10.07;70.79;100672.91;5070739;28;46278;-77
2022/11/29 00:42:19;;;;;;;;;3.25;3.00;;;;;9.98;70.69;100663.91;5050474;28;47605;-77
2022/11/29 00:44:44;;;;;;;;;4.25;2.75;;;;;10.07;70.71;100679.00;5067233;27;45943;-74
2022/11/29 00:47:10;;;;;;;;;4.25;4.25;;;;;9.95;70.79;100660.66;5070313;28;45629;-76
2022/11/29 00:49:35;;;;;;;;;2.00;2.00;;;;;9.96;71.01;100665.78;5070708;28;47343;-75
2022/11/29 00:52:01;;;;;;;;;6.00;5.00;;;;;10.00;71.22;100675.09;5068391;27;47356;-76
2022/11/29 00:54:26;;;;;;;;;3.75;3.00;;;;;9.99;71.33;100675.19;5069790;28;45740;-77
2022/11/29 00:56:52;;;;;;;;;3.00;3.00;;;;;9.97;71.34;100675.31;5063402;27;45864;-76
2022/11/29 00:59:17;;;;;;;;;4.00;3.50;;;;;9.98;71.32;100690.09;5065670;28;47480;-75
2022/11/29 01:01:42;;;;;;;;;2.50;2.50;;;;;9.97;71.53;100682.34;5049167;27;47258;-75
2022/11/29 01:04:08;;;;;;;;;4.25;4.25;;;;;9.96;71.44;100673.63;5062427;28;45681;-76
2022/11/29 01:06:33;;;;;;;;;5.75;4.50;;;;;9.98;71.26;100673.53;5052214;28;45671;-74
2022/11/29 01:08:59;;;;;;;;;4.50;4.50;;;;;9.90;71.27;100660.97;5070448;28;46440;-77
2022/11/29 01:11:26;;;;;;;;;4.25;3.00;;;;;10.00;71.54;100677.72;5069039;27;46097;-76
2022/11/29 01:13:57;;;;;;;;;3.75;3.00;;;;;10.00;71.38;100676.88;5069817;28;46267;-76
2022/11/29 01:16:24;;;;;;;;;3.25;3.00;;;;;10.02;71.27;100678.47;5070108;27;45638;-75
2022/11/29 01:18:50;;;;;;;;;4.00;3.50;;;;;10.03;71.49;100676.69;5068844;28;45925;-74
2022/11/29 01:21:19;;;;;;;;;3.00;3.00;;;;;10.04;71.35;100675.75;5068878;28;46277;-77
2022/11/29 01:23:46;;;;;;;;;2.75;2.75;;;;;10.00;71.18;100672.47;5069075;27;45917;-76
2022/11/29 01:26:19;;;;;;;;;5.75;4.25;;;;;10.05;71.40;100680.03;5070372;28;45931;-77
2022/11/29 01:28:47;;;;;;;;;3.00;2.00;;;;;10.02;71.24;100681.09;5069923;28;46457;-76
2022/11/29 01:31:15;;;;;;;;;3.75;3.75;;;;;9.93;71.45;100671.22;5069393;28;46787;-75
2022/11/29 01:33:41;;;;;;;;;4.50;4.25;;;;;9.93;71.51;100673.03;5068995;27;45674;-75
2022/11/29 01:36:08;;;;;;;;;3.75;3.00;;;;;9.93;71.49;100675.63;5065875;28;45898;-75
2022/11/29 01:38:34;;;;;;;;;7.00;5.75;;;;;9.99;71.64;100681.28;5064476;28;47406;-75
2022/11/29 01:41:06;;;;;;;;;2.50;2.50;;;;;9.98;71.47;100695.31;5069630;28;46508;-76
2022/11/29 01:43:33;;;;;;;;;9.00;4.50;;;;;10.02;71.55;100701.19;5068697;27;46119;-76
2022/11/29 01:45:59;;;;;;;;;4.25;3.00;;;;;9.98;71.42;100684.84;5071900;28;45708;-77
2022/11/29 01:48:31;;;;;;;;;6.00;3.00;;;;;10.02;71.50;100702.03;5073069;28;46243;-76
2022/11/29 01:51:00;;;;;;;;;4.25;3.00;;;;;10.04;71.33;100707.16;5072462;28;47389;-76
2022/11/29 01:53:26;;;;;;;;;3.00;2.00;;;;;10.04;71.57;100718.44;5071178;27;46473;-75
2022/11/29 01:55:57;;;;;;;;;5.50;1.50;;;;;9.95;71.64;100700.75;5071558;27;45779;-75
2022/11/29 01:58:23;;;;;;;;;5.00;3.00;;;;;9.93;71.55;100710.47;5069692;27;46297;-75
2022/11/29 02:00:48;;;;;;;;;5.00;2.75;;;;;9.95;71.68;100724.28;5072195;28;47083;-76
2022/11/29 02:03:17;;;;;;;;;3.00;2.50;;;;;9.89;71.70;100714.22;5071222;27;45952;-76
2022/11/29 02:05:47;;;;;;;;;3.00;3.00;;;;;9.93;71.74;100726.16;5073171;28;45809;-76
2022/11/29 02:08:19;;;;;;;;;4.00;4.00;;;;;9.94;71.49;100725.22;5054853;28;46613;-75
2022/11/29 02:11:02;;;;;;;;;2.25;2.25;;;;;9.98;71.34;100729.34;5063758;28;46472;-76
2022/11/29 02:13:55;;;;;;;;;3.50;2.50;;;;;9.98;71.56;100726.72;5070512;27;45800;-75
2022/11/29 02:16:46;;;;;;;;;2.25;2.00;;;;;9.99;71.56;100720.53;5072670;27;45692;-77
2022/11/29 02:19:24;;;;;;;;;3.00;2.00;;;;;10.01;71.59;100723.91;5070521;27;46402;-76
2022/11/29 02:22:13;;;;;;;;;0.75;0.75;;;;;10.04;71.57;100730.72;5053336;28;47163;-78
2022/11/29 02:25:11;;;;;;;;;2.00;2.00;;;;;10.05;71.31;100735.81;5072998;28;46175;-75
2022/11/29 02:27:51;;;;;;;;;2.50;2.50;;;;;10.08;71.40;100737.41;5069395;28;45739;-76
2022/11/29 02:30:58;;;;;;;;;4.00;3.00;;;;;10.08;71.53;100733.03;5072471;28;47812;-77
2022/11/29 02:33:48;;;;;;;;;2.00;2.00;;;;;10.09;71.50;100736.47;5011302;28;46544;-77
2022/11/29 02:36:39;;;;;;;;;4.25;3.00;;;;;10.01;71.54;100720.44;5029505;28;46102;-76
2022/11/29 02:39:13;;;;;;;;;0.00;0.00;;;;;10.05;71.59;100742.84;5029771;28;45720;-76
2022/11/29 02:41:51;;;;;;;;;5.25;3.00;;;;;10.05;71.36;100733.22;5028908;28;46635;-76
2022/11/29 02:44:35;;;;;;;;;4.50;3.00;;;;;10.04;71.38;100742.00;5029501;28;47348;-76
2022/11/29 02:47:14;;;;;;;;;3.00;2.00;;;;;10.04;71.52;100744.63;5029266;28;45816;-76
2022/11/29 02:50:06;;;;;;;;;2.50;2.50;;;;;10.06;71.36;100749.75;5030052;28;45852;-76
2022/11/29 02:52:36;;;;;;;;;3.50;3.00;;;;;10.07;71.49;100747.03;4969156;28;46696;-76
2022/11/29 02:55:14;;;;;;;;;3.00;3.00;;;;;10.08;71.57;100740.03;4969851;28;46516;-75
2022/11/29 02:57:55;;;;;;;;;5.50;2.75;;;;;10.03;71.33;100731.66;4969850;28;45627;-75
2022/11/29 03:00:22;;;;;;;;;3.00;3.00;;;;;10.06;71.14;100744.53;4970211;28;45743;-75
2022/11/29 03:02:50;;;;;;;;;3.00;3.00;;;;;10.09;71.43;100737.28;4968124;28;46388;-76
2022/11/29 03:05:32;;;;;;;;;2.50;2.25;;;;;10.10;71.15;100746.81;4970162;28;46249;-76
2022/11/29 03:08:15;;;;;;;;;3.00;1.75;;;;;10.03;71.27;100742.97;4972423;28;46256;-75
2022/11/29 03:11:17;;;;;;;;;3.00;2.25;;;;;10.06;71.32;100747.97;5029397;28;45798;-76
2022/11/29 03:14:02;;;;;;;;;3.00;3.00;;;;;10.02;71.43;100740.44;5019580;28;46838;-76
2022/11/29 03:16:39;;;;;;;;;3.00;3.00;;;;;10.08;71.41;100745.28;5030338;28;46471;-74
2022/11/29 03:19:17;;;;;;;;;7.75;5.75;;;;;10.08;71.19;100753.97;5028828;28;46082;-77
2022/11/29 03:22:20;;;;;;;;;4.25;3.25;;;;;10.12;71.29;100754.59;5029347;28;46197;-75
2022/11/29 03:25:02;;;;;;;;;2.25;2.00;;;;;10.09;71.14;100755.63;4969884;28;46655;-76
2022/11/29 03:27:35;;;;;;;;;2.75;2.75;;;;;10.13;70.96;100760.66;5023704;28;45900;-76
2022/11/29 03:30:08;;;;;;;;;7.50;5.00;;;;;10.11;71.15;100761.59;5057730;27;45760;-76
2022/11/29 03:32:51;;;;;;;;;5.00;3.00;;;;;10.14;71.00;100763.19;5074603;27;46478;-75
2022/11/29 03:35:23;;;;;;;;;5.25;3.00;;;;;10.08;71.21;100746.13;5071744;27;45719;-77
2022/11/29 03:38:09;;;;;;;;;6.25;4.25;;;;;10.24;71.04;100773.91;5070481;27;46643;-75
2022/11/29 03:40:42;;;;;;;;;4.25;4.25;;;;;10.27;71.09;100773.69;5071495;28;45933;-75
2022/11/29 03:43:39;;;;;;;;;3.50;2.50;;;;;10.29;70.90;100780.53;5071385;28;45665;-77
2022/11/29 03:46:10;;;;;;;;;6.50;5.00;;;;;10.30;70.84;100778.75;5071180;27;45961;-75
2022/11/29 03:48:43;;;;;;;;;3.00;3.00;;;;;10.24;70.80;100774.75;5070685;27;46928;-76
2022/11/29 03:51:28;;;;;;;;;10.50;3.75;;;;;10.29;70.86;100783.13;5071685;27;45888;-77
2022/11/29 03:54:01;;;;;;;;;1.50;1.50;;;;;10.27;70.99;100786.78;5060956;28;46174;-77
2022/11/29 03:56:29;;;;;;;;;7.75;3.25;;;;;10.24;70.86;100787.84;5068489;27;46624;-76
2022/11/29 03:59:15;;;;;;;;;4.00;3.00;;;;;10.23;70.89;100785.31;5040977;27;47936;-77
2022/11/29 04:02:24;;;;;;;;;3.00;3.00;;;;;10.19;70.65;100791.72;5070907;27;45904;-77
2022/11/29 04:05:12;;;;;;;;;2.75;2.50;;;;;10.17;70.66;100796.19;5071188;28;45872;-77
2022/11/29 04:08:13;;;;;;;;;2.25;2.00;;;;;10.19;71.01;100799.56;5070749;28;47171;-76
2022/11/29 04:11:03;;;;;;;;;3.75;3.00;;;;;10.23;70.88;100795.78;5066452;28;46118;-76
2022/11/29 04:13:44;;;;;;;;;3.00;3.00;;;;;10.25;70.86;100799.16;5064548;27;45731;-77
2022/11/29 04:16:44;;;;;;;;;3.75;3.75;;;;;10.25;70.64;100801.78;5068054;28;45966;-77
2022/11/29 04:19:11;;;;;;;;;5.00;4.00;;;;;10.23;70.77;100808.88;5070965;28;47838;-77
2022/11/29 04:22:42;;;;;;;;;6.50;3.00;;;;;10.20;70.56;100814.34;5070948;28;47537;-76
2022/11/29 04:25:38;;;;;;;;;6.00;3.00;;;;;10.15;70.61;100813.78;5028978;28;45752;-76
2022/11/29 04:28:57;;;;;;;;;7.00;3.00;;;;;10.13;70.71;100818.25;5085916;27;45787;-76
2022/11/29 04:31:31;;;;;;;;;6.00;4.00;;;;;10.10;70.80;100814.88;5017173;28;47538;-76
2022/11/29 04:34:34;;;;;;;;;5.00;4.50;;;;;10.11;70.83;100826.19;5063785;28;46531;-77
2022/11/29 04:37:28;;;;;;;;;4.75;3.75;;;;;10.11;70.82;100831.44;5070532;28;45664;-77
2022/11/29 04:40:25;;;;;;;;;5.25;2.25;;;;;10.09;70.89;100831.53;5071216;28;46017;-77
2022/11/29 04:43:32;;;;;;;;;2.00;2.00;;;;;10.04;70.67;100825.75;5060460;27;47281;-76
2022/11/29 04:46:24;;;;;;;;;6.00;5.00;;;;;10.05;70.97;100832.69;5008285;28;46118;-78
2022/11/29 04:49:04;;;;;;;;;5.25;5.00;;;;;10.11;70.92;100847.97;5007706;28;45743;-77
2022/11/29 04:51:57;;;;;;;;;6.75;6.00;;;;;10.10;70.63;100843.69;5007362;28;45994;-77
2022/11/29 04:55:10;;;;;;;;;7.75;6.00;;;;;10.10;70.86;100842.84;5007843;28;46868;-77
2022/11/29 04:57:56;;;;;;;;;5.50;5.50;;;;;10.12;70.64;100846.22;5004455;28;46495;-76
2022/11/29 05:00:23;;;;;;;;;7.00;7.00;;;;;10.11;70.84;100842.75;5007031;28;45859;-76
2022/11/29 05:02:57;;;;;;;;;5.50;5.50;;;;;10.13;71.02;100854.91;5005668;28;46306;-77
2022/11/29 05:05:46;;;;;;;;;10.75;9.00;;;;;10.09;70.78;100847.22;4995549;28;46522;-76
2022/11/29 05:08:11;;;;;;;;;6.75;6.75;;;;;10.10;70.89;100855.94;5007196;28;46157;-75
2022/11/29 05:10:43;;;;;;;;;8.25;6.75;;;;;10.09;70.86;100846.44;5001842;28;46261;-76
2022/11/29 05:13:56;;;;;;;;;6.25;6.25;;;;;10.04;70.99;100854.53;5001990;28;45935;-75
2022/11/29 05:16:39;;;;;;;;;6.25;5.50;;;;;10.07;70.85;100858.75;4928535;28;47796;-76
2022/11/29 05:19:19;;;;;;;;;7.25;6.25;;;;;10.07;71.08;100864.00;4925794;28;47355;-77
2022/11/29 05:22:15;;;;;;;;;7.50;7.25;;;;;10.08;70.97;100863.91;4933777;28;46124;-74
2022/11/29 05:24:50;;;;;;;;;8.00;6.00;;;;;10.09;70.85;100862.94;4991779;28;45710;-75
2022/11/29 05:27:38;;;;;;;;;7.25;7.25;;;;;10.11;70.65;100863.69;4991226;28;46662;-77
2022/11/29 05:30:09;;;;;;;;;8.25;7.00;;;;;10.09;70.63;100854.28;4991420;28;46304;-76
2022/11/29 05:32:53;;;;;;;;;6.25;6.00;;;;;10.17;70.73;100867.72;4990007;28;46283;-76
2022/11/29 05:36:00;;;;;;;;;8.75;6.25;;;;;10.21;70.64;100874.44;4990345;28;45640;-76
2022/11/29 05:38:31;;;;;;;;;10.75;8.00;;;;;10.23;70.82;100882.19;4990613;28;46081;-76
2022/11/29 05:41:18;;;;;;;;;11.25;8.00;;;;;10.25;70.53;100893.41;4990644;28;47068;-75
2022/11/29 05:44:08;;;;;;;;;7.00;6.00;;;;;10.25;70.52;100896.03;4990917;28;45799;-77
2022/11/29 05:46:55;;;;;;;;;6.75;5.25;;;;;10.26;70.68;100900.31;4990949;28;45694;-74
2022/11/29 05:49:47;;;;;;;;;8.50;7.00;;;;;10.26;70.69;100903.78;4964862;28;47768;-75
2022/11/29 05:52:38;;;;;;;;;5.00;5.00;;;;;10.27;70.62;100902.00;5021510;28;47031;-75
2022/11/29 05:55:40;;;;;;;;;9.75;8.00;;;;;10.27;70.47;100902.84;5071493;27;45759;-77
2022/11/29 05:58:27;;;;;;;;;8.00;6.00;;;;;10.28;70.32;100912.38;5060659;28;45739;-76
2022/11/29 06:01:04;;;;;;;;;7.25;7.00;;;;;10.28;70.33;100914.16;5072826;28;46797;-75
2022/11/29 06:03:39;;;;;;;;;7.25;7.25;;;;;10.30;70.23;100915.75;5072230;28;46546;-78
2022/11/29 06:06:18;;;;;;;;;11.00;9.25;;;;;10.30;70.22;100921.00;5072998;28;45613;-76
2022/11/29 06:08:53;;;;;;;;;9.50;9.00;;;;;10.31;70.08;100911.34;5073081;28;45645;-75
2022/11/29 06:11:26;;;;;;;;;13.00;9.00;;;;;10.32;70.32;100916.47;5072249;28;45756;-76
2022/11/29 06:14:04;;;;;;;;;6.75;6.25;;;;;10.32;70.18;100918.25;5073079;28;46000;-76
2022/11/29 06:16:35;;;;;;;;;10.75;8.50;;;;;10.35;70.00;100920.69;5072557;28;45740;-76
2022/11/29 06:19:32;;;;;;;;;9.50;8.50;;;;;10.32;70.17;100916.47;5072382;27;45696;-77
2022/11/29 06:22:20;;;;;;;;;11.75;8.75;;;;;10.29;70.13;100921.91;5071675;27;46028;-75
2022/11/29 06:25:22;;;;;;;;;7.00;7.00;;;;;10.27;70.10;100929.03;5069834;28;46197;-77
2022/11/29 06:27:56;;;;;;;;;10.75;9.75;;;;;10.24;70.01;100942.31;5062120;27;46103;-75
2022/11/29 06:30:28;;;;;;;;;10.50;9.00;;;;;10.21;70.04;100937.28;5054069;28;46010;-76
2022/11/29 06:33:00;;;;;;;;;7.75;7.00;;;;;10.17;69.93;100934.94;5053988;28;47246;-75
2022/11/29 06:35:44;;;;;;;;;8.50;8.50;;;;;10.11;70.24;100929.13;5072384;28;46490;-77
2022/11/29 06:38:19;;;;;;;;;8.00;7.50;;;;;10.15;70.47;100940.25;5072973;28;45723;-77
2022/11/29 06:40:45;;;;;;;;;12.00;11.25;;;;;10.15;70.16;100942.06;5072059;28;45854;-76
2022/11/29 06:43:11;;;;;;;;;11.25;10.25;;;;;10.17;70.45;100948.88;5071486;28;46286;-76
2022/11/29 06:45:43;;;;;;;;;10.75;8.25;;;;;10.10;70.35;100940.53;5075941;27;45838;-76
2022/11/29 06:48:18;;;;;;;;;12.75;8.50;;;;;10.08;70.31;100945.06;5070710;27;45862;-76
2022/11/29 06:51:10;;;;;;;;;13.25;10.50;;;;;10.13;70.50;100960.47;5063712;28;45563;-77
2022/11/29 06:53:51;;;;;;;;;11.25;9.25;;;;;10.13;70.13;100959.63;5053314;28;47497;-76
2022/11/29 06:56:38;;;;;;;;;11.50;10.50;;;;;10.11;70.67;100963.19;5068459;27;46246;-77
2022/11/29 06:59:48;;;;;;;;;13.25;11.50;;;;;10.10;70.54;100961.50;5059104;28;45712;-77
2022/11/29 07:02:58;;;;;;;;;13.00;11.00;;;;;10.09;70.36;100966.84;5043334;28;46142;-75
2022/11/29 07:05:28;;;;;;;;;14.00;12.00;;;;;10.08;70.58;100962.53;5068661;28;47443;-77
2022/11/29 07:07:57;;;;;;;;;13.00;12.00;;;;;10.05;70.59;100966.19;5053770;28;48219;-76
2022/11/29 07:10:23;;;;;;;;;13.50;10.25;;;;;10.03;70.35;100969.84;5071910;28;46111;-77
2022/11/29 07:12:50;;;;;;;;;8.00;8.00;;;;;9.90;70.59;100972.38;5071972;28;46000;-77
2022/11/29 07:15:18;;;;;;;;;12.00;11.00;;;;;9.97;70.62;100975.47;5071612;28;47678;-77
2022/11/29 07:17:58;;;;;;;;;15.00;12.00;;;;;9.97;70.67;100981.53;5070728;28;47591;-77
2022/11/29 07:20:38;;;;;;;;;12.50;11.25;;;;;9.98;70.60;100985.00;5065767;28;45927;-78
2022/11/29 07:23:44;;;;;;;;;14.75;13.00;;;;;9.96;70.63;100984.25;5072048;28;45648;-78
2022/11/29 07:26:29;;;;;;;;;15.00;12.00;;;;;9.95;70.52;100990.41;5071740;27;48652;-77
2022/11/29 07:29:23;;;;;;;;;11.25;11.00;;;;;9.98;70.87;100991.06;5072437;28;46558;-78
2022/11/29 07:32:03;;;;;;;;;12.25;11.00;;;;;9.94;70.56;100973.00;5075263;28;45932;-77
2022/11/29 07:38:04;;;;;;;;;10.50;8.00;;;;;9.97;70.40;100991.16;5075116;28;46030;-78
2022/11/29 07:40:44;;;;;;;;;12.00;11.25;;;;;10.02;70.31;100996.94;5075000;28;46396;-77
2022/11/29 07:43:48;;;;;;;;;12.00;9.75;;;;;10.03;70.30;100991.63;5073785;28;45644;-78
2022/11/29 07:46:14;;;;;;;;;13.00;12.75;;;;;10.02;70.05;100987.31;5074013;28;45756;-78
2022/11/29 07:48:39;;;;;;;;;8.25;8.25;;;;;10.06;70.30;101001.06;5073488;28;48360;-79
2022/11/29 07:51:05;;;;;;;;;13.00;12.00;;;;;10.10;69.90;100998.13;5074306;28;47374;-77
2022/11/29 07:53:30;;;;;;;;;11.25;10.25;;;;;10.05;70.00;100994.97;5074700;28;45625;-78
2022/11/29 07:55:56;;;;;;;;;11.50;11.50;;;;;10.10;69.86;101002.53;5074467;28;45532;-79
2022/11/29 07:58:22;;;;;;;;;11.25;9.25;;;;;10.06;70.01;100987.97;5074274;28;47909;-77
2022/11/29 08:00:49;;;;;;;;;11.00;9.75;;;;;10.18;69.78;101009.94;5074276;28;46139;-77
2022/11/29 08:09:59;;;;;;;;;16.00;14.00;;;;;10.25;69.82;101019.09;5074856;28;45703;-78
2022/11/29 08:12:24;;;;;;;;;18.75;16.00;;;;;10.16;70.03;101004.81;5074312;28;46352;-76
2022/11/29 08:14:53;;;;;;;;;15.00;13.00;;;;;10.24;69.85;101022.66;5074322;28;45644;-78
2022/11/29 08:17:19;;;;;;;;;22.00;19.25;;;;;10.24;69.73;101020.03;5074525;28;45956;-77
2022/11/29 08:19:44;;;;;;;;;21.50;19.50;;;;;10.11;70.15;100997.22;5074520;28;45794;-77
2022/11/29 08:22:11;;;;;;;;;21.00;18.25;;;;;10.28;70.01;101017.13;5074264;28;46702;-76
2022/11/29 08:24:37;;;;;;;;;22.50;20.75;;;;;10.30;69.89;101030.13;5074600;28;46012;-79
2022/11/29 08:27:02;;;;;;;;;24.75;20.75;;;;;9.88;70.16;100962.97;5074511;28;45945;-78
2022/11/29 08:29:28;;;;;;;;;25.00;23.25;;;;;10.34;69.87;101027.22;5072785;27;47056;-78
2022/11/29 08:31:54;;;;;;;;;23.50;21.00;;;;;10.35;70.07;101034.13;5074341;28;46135;-77
2022/11/29 08:37:40;;;;;;;;;28.75;26.25;;;;;10.27;70.18;101018.06;5074853;28;45507;-77
2022/11/29 08:40:06;;;;;;;;;30.00;28.00;;;;;10.37;69.84;101036.63;5074424;28;46328;-78
2022/11/29 08:42:32;;;;;;;;;26.25;24.00;;;;;10.43;69.79;101050.19;5073539;28;47165;-77
2022/11/29 08:44:58;;;;;;;;;31.75;23.50;;;;;10.43;69.98;101054.59;5055820;28;45761;-77
2022/11/29 08:47:36;;;;;;;;;30.50;27.50;;;;;10.44;69.70;101051.88;5074165;28;45763;-77
2022/11/29 08:53:42;;;;;;;;;31.25;27.50;;;;;10.48;69.53;101065.63;5073461;28;45773;-78
2022/11/29 08:56:19;;;;;;;;;29.50;24.25;;;;;10.51;69.49;101074.13;5073712;28;45956;-78
2022/11/29 08:58:45;;;;;;;;;29.75;25.50;;;;;10.51;69.33;101075.91;5073866;28;45662;-77
2022/11/29 09:01:13;;;;;;;;;27.75;26.50;;;;;10.51;69.33;101087.25;5073373;28;46626;-76
2022/11/29 09:10:13;;;;;;;;;23.25;21.75;;;;;10.48;69.11;101090.03;5073589;28;45696;-77
2022/11/29 09:12:39;;;;;;;;;32.00;26.00;;;;;10.52;69.08;101093.31;5073780;28;45600;-77
2022/11/29 09:15:08;;;;;;;;;22.75;21.50;;;;;10.48;69.10;101095.28;5073603;28;47005;-77
2022/11/29 09:17:34;;;;;;;;;26.25;21.25;;;;;10.43;69.15;101086.88;5074011;28;45958;-77
2022/11/29 09:20:00;;;;;;;;;25.00;21.00;;;;;10.50;68.98;101103.03;5073847;28;45846;-77
2022/11/29 09:22:25;;;;;;;;;18.50;17.75;;;;;10.51;69.08;101107.34;5073051;28;47174;-77
2022/11/29 09:24:51;;;;;;;;;22.00;21.00;;;;;10.51;68.83;101115.22;5073454;28;46782;-75
2022/11/29 09:27:16;;;;;;;;;26.25;22.50;;;;;10.47;68.81;101111.09;5073509;28;45639;-77
2022/11/29 09:29:42;;;;;;;;;24.50;24.50;;;;;10.51;68.81;101121.28;5055246;28;45981;-77
2022/11/29 09:32:08;;;;;;;;;25.75;22.00;;;;;10.47;68.92;101122.41;5073000;28;47260;-77
2022/11/29 09:34:34;;;;;;;;;23.00;20.25;;;;;10.51;68.69;101136.16;5073445;28;45918;-77
2022/11/29 09:36:59;;;;;;;;;21.50;20.25;;;;;10.44;68.73;101130.47;5073278;28;45776;-79
2022/11/29 09:39:25;;;;;;;;;19.00;18.50;;;;;10.49;68.77;101138.88;5073596;28;45846;-77
2022/11/29 09:42:12;;;;;;;;;20.75;18.75;;;;;10.50;68.66;101137.94;5054740;28;45758;-78
2022/11/29 09:44:53;;;;;;;;;31.75;25.75;;;;;10.51;68.58;101137.00;5073523;28;46506;-77
2022/11/29 09:48:21;;;;;;;;;22.25;20.25;;;;;10.50;68.65;101145.81;5074581;28;45826;-76
2022/11/29 09:51:01;;;;;;;;;26.25;23.25;;;;;10.57;68.40;101154.13;5074127;27;45903;-78
2022/11/29 09:54:14;;;;;;;;;24.00;22.25;;;;;10.60;68.52;101153.09;5073362;28;47396;-77
2022/11/29 09:56:51;;;;;;;;;25.00;18.00;;;;;10.61;68.31;101157.41;5073429;28;46336;-77
2022/11/29 09:59:27;;;;;;;;;22.00;18.75;;;;;10.55;68.06;101157.78;5055058;28;45573;-77
2022/11/29 10:01:56;;;;;;;;;19.75;16.50;;;;;10.60;68.07;101164.41;5072419;28;45871;-79
2022/11/29 10:07:34;;;;;;;;;25.00;20.50;;;;;10.62;67.95;101180.03;5075096;28;46156;-78
2022/11/29 10:10:12;;;;;;;;;22.25;20.25;;;;;10.53;68.01;101169.19;5076646;28;45816;-77
2022/11/29 10:12:50;;;;;;;;;20.75;18.50;;;;;10.64;67.93;101186.00;5076336;28;45899;-78
2022/11/29 10:15:24;;;;;;;;;17.50;13.00;;;;;10.64;68.19;101181.63;5076044;28;47800;-76
2022/11/29 10:18:22;;;;;;;;;24.75;22.25;;;;;10.64;67.80;101184.22;5076405;28;45994;-77
2022/11/29 10:24:14;;;;;;;;;25.50;16.75;;;;;10.58;67.85;101175.94;5076638;28;45579;-76
2022/11/29 10:26:40;;;;;;;;;20.75;17.50;;;;;10.63;67.70;101179.13;5075952;28;45769;-77
2022/11/29 10:29:08;;;;;;;;;22.00;19.00;;;;;10.63;67.45;101182.56;5076115;28;46001;-76
2022/11/29 10:31:42;;;;;;;;;22.25;20.00;;;;;10.63;67.69;101182.56;5075918;28;45978;-78
2022/11/29 10:34:20;;;;;;;;;22.25;21.00;;;;;10.63;67.51;101185.19;5076112;28;45638;-77
2022/11/29 10:40:27;;;;;;;;;25.75;19.00;;;;;10.56;67.60;101183.88;5075709;28;45768;-77
2022/11/29 10:42:53;;;;;;;;;20.25;16.50;;;;;10.62;67.43;101195.75;5076230;28;45532;-76
2022/11/29 10:45:24;;;;;;;;;17.75;16.00;;;;;10.62;67.61;101196.59;5076191;28;45761;-78
2022/11/29 10:47:52;;;;;;;;;26.25;22.75;;;;;10.64;67.51;101199.97;5075869;28;46834;-76
2022/11/29 10:50:32;;;;;;;;;23.75;22.50;;;;;10.65;67.55;101198.19;5075861;28;45553;-78
2022/11/29 10:53:05;;;;;;;;;34.25;29.50;;;;;10.65;67.32;101187.69;5075870;28;45838;-78
2022/11/29 10:55:40;;;;;;;;;28.75;24.25;;;;;10.65;67.52;101187.69;5075721;28;45563;-76
2022/11/29 10:58:09;;;;;;;;;30.00;25.00;;;;;10.69;67.45;101187.41;5075986;28;45552;-78
2022/11/29 11:00:49;;;;;;;;;31.00;28.25;;;;;10.70;67.28;101194.34;5075472;28;46268;-78
2022/11/29 11:03:26;;;;;;;;;36.75;27.25;;;;;10.57;67.47;101167.22;5075578;28;45640;-78
2022/11/29 11:06:47;;;;;;;;;28.75;26.00;;;;;10.72;67.56;101199.50;5075972;28;45513;-76
2022/11/29 11:09:41;;;;;;;;;32.75;25.50;;;;;10.74;67.22;101197.63;4996614;28;47315;-78
2022/11/29 11:12:12;;;;;;;;;42.75;33.50;;;;;10.72;67.18;101195.09;5013027;28;46123;-77
2022/11/29 11:14:39;;;;;;;;;27.50;25.25;;;;;10.69;67.28;101187.41;5012868;28;45862;-78
2022/11/29 11:17:29;;;;;;;;;30.50;26.25;;;;;10.59;67.30;101173.19;5013233;28;45626;-77
2022/11/29 11:20:00;;;;;;;;;36.25;27.25;;;;;10.73;67.08;101196.78;5012804;28;45732;-76
2022/11/29 11:22:27;;;;;;;;;32.25;26.75;;;;;10.51;67.12;101155.34;5012602;28;46246;-78
2022/11/29 11:25:03;;;;;;;;;32.75;25.50;;;;;10.56;67.12;101170.78;5013290;28;45588;-78
2022/11/29 11:27:32;;;;;;;;;27.25;24.00;;;;;10.73;66.85;101202.03;5013137;28;45950;-78
2022/11/29 11:29:59;;;;;;;;;28.25;24.00;;;;;10.77;67.13;101207.91;5013014;28;46603;-79
2022/11/29 11:32:25;;;;;;;;;28.50;25.25;;;;;10.81;67.04;101204.16;5013790;28;45758;-76
2022/11/29 11:34:59;;;;;;;;;24.75;22.00;;;;;10.82;67.02;101192.75;5013115;28;45745;-79
2022/11/29 11:37:26;;;;;;;;;25.50;23.50;;;;;10.87;66.68;101196.75;5012981;28;45754;-78
2022/11/29 11:39:56;;;;;;;;;27.25;23.50;;;;;10.87;66.56;101188.03;5012663;28;46399;-78
2022/11/29 11:42:37;;;;;;;;;27.00;23.25;;;;;10.88;66.63;101194.97;5012611;28;45782;-77
2022/11/29 11:45:25;;;;;;;;;23.75;17.75;;;;;10.91;66.50;101198.22;5028500;28;45834;-76
2022/11/29 11:47:53;;;;;;;;;17.50;16.00;;;;;10.90;66.50;101185.25;5075241;28;45459;-78
2022/11/29 11:53:36;;;;;;;;;22.50;22.00;;;;;10.95;66.44;101196.28;5074492;28;46263;-78
2022/11/29 11:56:06;;;;;;;;;31.25;24.25;;;;;10.88;66.62;101185.34;5057178;28;45832;-78
2022/11/29 11:58:46;;;;;;;;;28.75;26.50;;;;;10.98;66.35;101192.63;5075467;28;45893;-77
2022/11/29 12:01:11;;;;;;;;;25.50;23.00;;;;;11.02;66.17;101194.94;5074799;28;46660;-78
2022/11/29 12:03:55;;;;;;;;;30.50;25.25;;;;;11.04;66.03;101194.84;5074420;28;45807;-78
2022/11/29 12:09:51;;;;;;;;;33.00;28.75;;;;;11.05;65.89;101193.91;5074682;28;45511;-78
2022/11/29 12:12:25;;;;;;;;;32.25;26.75;;;;;11.06;65.77;101198.22;5074621;28;45590;-78
2022/11/29 12:15:00;;;;;;;;;33.75;30.00;;;;;11.07;66.02;101194.63;5074602;28;46441;-77
2022/11/29 12:17:48;;;;;;;;;35.75;30.75;;;;;11.08;65.64;101205.03;5074326;28;45584;-77
2022/11/29 12:20:26;;;;;;;;;30.00;29.75;;;;;11.07;65.60;101205.97;5074671;28;45641;-76
2022/11/29 12:26:19;;;;;;;;;36.00;30.50;;;;;11.06;65.52;101204.31;5074229;28;45734;-78
2022/11/29 12:28:45;;;;;;;;;30.00;28.75;;;;;11.10;65.49;101204.94;5073697;28;45941;-77
2022/11/29 12:31:29;;;;;;;;;33.25;28.75;;;;;11.11;65.37;101207.47;5074554;28;45619;-78
2022/11/29 12:33:55;;;;;;;;;34.50;28.75;;;;;11.12;65.20;101203.91;5074393;28;46426;-77
2022/11/29 12:36:42;;;;;;;;;39.00;28.33;;;;;11.12;65.30;101200.47;5074934;28;45545;-78
2022/11/29 12:39:44;;;;;;;;;32.75;30.25;;;;;11.14;65.32;101203.81;5075038;28;45637;-78
2022/11/29 12:42:19;;;;;;;;;30.25;27.75;;;;;11.18;65.08;101202.66;5074466;28;45526;-79
2022/11/29 12:44:59;;;;;;;;;35.75;29.25;;;;;11.19;65.30;101205.19;5074419;28;46577;-78
2022/11/29 12:47:43;;;;;;;;;33.50;30.25;;;;;11.21;65.24;101211.19;5074511;28;46090;-78